Terminal Aerodrome Forecast
Issued by NWS La Crosse, WI

Home | Current Version | Previous Version | Text Only | Print | Product List | Glossary On
Versions: 1 2 3 4 5 6 7 8 9 10 11 12 13 14 15 16 17 18 19 20 21 22 23 24
000
FTUS43 KARX 280603 AAA
TAFLSE
TAF AMD
KLSE 280603Z 2806/2906 32004KT P6SM BKN025
     FM280900 VRB03KT 2SM BR SCT006
     FM281100 VRB03KT 1SM BR BKN006
     FM281300 05004KT 3SM BR OVC015
     FM281500 06005KT P6SM BKN015
     FM281700 06005KT P6SM SCT030=

USA.gov is the U.S. government's official web portal to all federal, state and local government web resources and services.